Dallas, Texas
Traffic Map
Current Weather Conditions
Dallas, Texas
Overcast Haze
Overcast
47°
Feels Like: 45°
Wind Chill: 45° Ceiling: 1100
Heat Index: 47° Visibility: 5mi
Dew Point: 44° Wind: 5mph
Humidity: 90% Direction: 350° (N)
Pressure: 30.22in Gusts: 0mph
Raw Report DataKDAL 200553Z 35004KT 5SM BR OVC011 08/07 A3022 RMK AO2 SLP233 T00830067 10094 20083 401000078 50005
Traffic Incident Summary
Active as of:
Severity:
Category:
InformationThere was an issue retrieving the traffic information for this location. Please try a different location or try again shortly.
Advertisements
Track Severe Weather on mobile